Latest Weather Observations for Oakey

IDQ60901

Issued at 5:51 am EST Saturday 16 October 2021 (issued every 10 minutes, with the page automatically refreshed every 10 minutes)

About weather observations | Map of Brisbane area stations | Latest observations for Brisbane area | Other Formats
Station Details ID: 041359 Name: OAKEY AERO Lat: -27.40 Lon: 151.74 Height: 405.69 m
Data from the previous 72 hours. | See also: Recent months at Oakey
Date/Time
EST
Temp
°C
App
Temp
°C
Dew
Point
°C
Rel
Hum
%
Delta-T
°C
Wind Press
QNH
hPa
Press
MSL
hPa
Rain since
9am
mm
Dir  Spd
km/h
Gust
km/h
Spd
kts
Gust
kts
16/05:30am 6.4 2.8 5.2 92 0.5 NW 13 13 7 7 1011.5 1010.1 0.0
16/05:00am 6.4 2.8 5.0 91 0.6 WNW 13 13 7 7 1011.3 1009.9 0.0
16/04:30am 6.8 3.5 4.8 87 0.9 NW 11 11 6 6 1011.0 1009.6 0.0
16/04:00am 8.2 5.3 4.6 78 1.6 WNW 9 11 5 6 1010.8 1009.4 0.0
16/03:30am 8.7 5.7 4.3 74 2.0 WNW 9 13 5 7 1010.7 1009.3 0.0
16/03:00am 8.6 5.3 4.6 76 1.8 WNW 11 13 6 7 1010.6 1009.2 0.0
16/02:30am 8.4 5.0 4.0 74 2.0 WNW 11 13 6 7 1010.7 1009.3 0.0
16/02:00am 8.7 5.3 3.9 72 2.1 W 11 13 6 7 1010.8 1009.4 0.0
16/01:30am 9.8 6.4 4.2 68 2.5 W 11 13 6 7 1010.8 1009.4 0.0
16/01:00am 10.1 6.3 4.0 66 2.8 W 13 15 7 8 1010.8 1009.4 0.0
16/12:30am 10.3 6.6 4.2 66 2.8 W 13 15 7 8 1011.0 1009.6 0.0
16/12:00am 10.8 6.7 4.5 65 2.9 WNW 15 15 8 8 1011.0 1009.6 0.0
 
Date/Time
EST
Temp
°C
App
Temp
°C
Dew
Point
°C
Rel
Hum
%
Delta-T
°C
Wind Press
QNH
hPa
Press
MSL
hPa
Rain since
9am
mm
Dir  Spd
km/h
Gust
km/h
Spd
kts
Gust
kts
15/11:30pm 11.1 6.7 4.8 65 2.9 W 17 17 9 9 1010.9 1009.5 0.0
15/11:00pm 10.4 6.6 5.6 72 2.3 WNW 15 15 8 8 1011.0 1009.6 0.0
15/10:30pm 11.0 7.1 5.5 69 2.6 WNW 15 17 8 9 1010.9 1009.5 0.0
15/10:00pm 12.4 9.0 5.8 64 3.2 WSW 13 15 7 8 1010.7 1009.3 0.0
15/09:30pm 13.0 9.5 5.4 60 3.6 W 13 15 7 8 1010.2 1008.8 0.0
15/09:00pm 13.2 10.6 5.9 61 3.5 WNW 9 11 5 6 1010.0 1008.6 0.0
15/08:30pm 14.1 11.3 5.2 55 4.3 W 9 11 5 6 1009.6 1008.2 0.0
15/08:00pm 14.9 10.4 4.3 49 5.0 WNW 17 17 9 9 1009.2 1007.8 0.0
15/07:30pm 15.9 11.3 3.7 44 5.7 WNW 17 19 9 10 1008.8 1007.4 0.0
15/07:00pm 16.5 12.2 3.2 41 6.2 WNW 15 17 8 9 1008.7 1007.3 0.0
15/06:30pm 17.3 12.9 2.9 38 6.7 WNW 15 17 8 9 1008.5 1007.1 0.0
15/06:00pm 19.7 14.4 1.7 30 8.4 WNW 19 22 10 12 1008.2 1006.7 0.0
15/05:30pm 22.3 15.1 0.8 24 10.0 W 28 39 15 21 1007.9 1006.4 0.0
15/05:00pm 23.5 15.3 -0.7 20 11.1 WNW 32 46 17 25 1007.3 1005.9 0.0
15/04:30pm 24.2 14.6 -1.6 18 11.7 WNW 39 52 21 28 1007.1 1005.7 0.0
15/04:11pm 24.8 16.4 -2.7 16 12.3 WNW 32 50 17 27 1006.9 1005.5 0.0
15/04:00pm 25.0 16.3 -0.2 19 11.8 WNW 35 46 19 25 1006.8 1005.4 0.0
15/03:30pm 25.7 17.6 -0.4 18 12.2 WNW 32 43 17 23 1006.8 1005.4 0.0
15/03:04pm 25.9 17.2 -0.2 18 12.3 WNW 35 54 19 29 1006.8 1005.4 0.0
15/03:00pm 25.5 16.2 -2.1 16 12.6 WNW 37 54 20 29 1006.8 1005.4 0.0
15/02:58pm 25.7 16.9 -1.2 17 12.4 WNW 35 54 19 29 1006.8 1005.4 0.0
15/02:30pm 25.6 16.7 -2.1 16 12.6 W 35 52 19 28 1006.9 1005.5 0.0
15/02:28pm 25.9 17.5 -1.0 17 12.5 W 33 52 18 28 1006.9 1005.5 0.0
15/02:00pm 25.5 16.3 -1.3 17 12.4 W 37 48 20 26 1007.0 1005.6 0.0
15/01:42pm 26.0 16.9 -0.9 17 12.5 WNW 37 48 20 26 1007.2 1005.8 0.0
15/01:30pm 26.0 16.7 0.6 19 12.2 WNW 39 52 21 28 1007.3 1005.9 0.0
15/01:10pm 26.2 18.8 4.1 24 11.3 W 32 50 17 27 1007.4 1006.0 0.0
15/01:00pm 25.9 17.9 3.8 24 11.2 WNW 35 50 19 27 1007.6 1006.2 0.0
15/12:34pm 25.3 17.9 3.9 25 10.8 WNW 32 54 17 29 1008.0 1006.5 0.0
15/12:30pm 25.4 18.1 4.5 26 10.7 WNW 32 43 17 23 1008.0 1006.5 0.0
15/12:19pm 25.6 18.3 4.7 26 10.7 WNW 32 52 17 28 1008.2 1006.7 0.0
15/12:00pm 24.8 17.2 2.9 24 10.9 WNW 32 43 17 23 1008.4 1007.0 0.0
15/11:30am 24.4 16.8 3.1 25 10.5 WNW 32 41 17 22 1008.9 1007.5 0.0
15/11:00am 23.4 18.3 3.9 28 9.8 W 20 35 11 19 1009.4 1008.0 0.0
15/10:30am 22.5 17.5 4.5 31 9.0 WSW 20 32 11 17 1009.9 1008.5 0.0
15/10:00am 21.8 15.8 3.5 30 9.0 WSW 24 35 13 19 1011.0 1009.6 0.0
15/09:30am 21.0 14.4 4.1 33 8.3 WSW 28 37 15 20 1011.3 1009.9 0.0
15/09:00am 20.8 13.6 6.0 38 7.6 WSW 33 41 18 22 1011.5 1010.1 1.0
15/08:30am 20.6 12.7 6.2 39 7.4 WSW 37 50 20 27 1011.6 1010.2 1.0
15/08:00am 21.0 13.6 9.9 49 6.1 W 39 52 21 28 1011.4 1010.0 1.0
15/07:47am 20.5 15.0 12.0 58 4.8 W 32 50 17 27 1011.3 1009.9 1.0
15/07:30am 20.1 15.6 15.3 74 2.9 WNW 33 48 18 26 1011.5 1010.1 1.0
15/07:00am 20.7 18.4 18.5 87 1.4 NW 28 44 15 24 1010.9 1009.5 1.0
15/06:30am 20.2 19.6 18.9 92 0.8 NNW 20 32 11 17 1009.5 1008.1 1.0
15/06:00am 20.1 18.9 18.4 90 1.1 NW 22 32 12 17 1009.6 1008.2 1.0
15/05:32am 19.9 18.7 18.4 91 0.9 NW 22 32 12 17 1009.6 1008.2 1.0
15/05:30am 19.8 18.6 18.5 92 0.8 NW 22 30 12 16 1009.7 1008.3 1.0
15/05:19am 19.5 19.0 19.2 98 0.2 NW 20 41 11 22 1009.7 1008.3 1.0
15/05:00am 17.6 18.4 17.3 98 0.2 N 9 13 5 7 1009.0 1007.6 1.0
15/04:30am 18.8 19.9 18.0 95 0.5 WNW 9 15 5 8 1008.3 1006.8 1.0
15/04:13am 19.4 17.0 18.2 93 0.8 N 28 39 15 21 1008.3 1006.8 1.0
15/04:00am 19.7 18.9 18.4 92 0.8 NNW 20 33 11 18 1008.6 1007.2 1.0
15/03:53am 19.8 19.6 18.5 92 0.8 WNW 17 26 9 14 1009.2 1007.8 1.0
15/03:51am 19.5 19.5 18.2 92 0.8 NW 15 20 8 11 1009.3 1007.9 1.0
15/03:41am 19.6 20.5 18.3 92 0.8 E 11 17 6 9 1008.0 1006.5 1.0
15/03:30am 19.2 19.9 17.9 92 0.8 ENE 11 15 6 8 1007.5 1006.1 1.0
15/03:00am 18.8 18.9 17.5 92 0.8 NNE 13 17 7 9 1007.8 1006.3 1.0
15/02:30am 18.8 17.8 17.6 93 0.7 NE 19 24 10 13 1007.5 1006.1 1.0
15/02:00am 18.9 17.4 17.6 92 0.8 NE 22 28 12 15 1007.9 1006.4 1.0
15/01:30am 18.7 17.5 17.5 93 0.7 NE 20 26 11 14 1008.8 1007.4 1.0
15/01:02am 19.4 15.9 17.4 88 1.2 NNE 32 50 17 27 1009.0 1007.6 1.0
15/01:00am 19.3 15.9 17.6 90 1.1 NE 32 41 17 22 1009.0 1007.6 1.0
15/12:30am 18.9 15.5 17.7 93 0.7 NE 32 37 17 20 1009.0 1007.6 1.0
15/12:00am 18.8 15.6 18.1 96 0.4 NE 32 37 17 20 1009.8 1008.4 1.0
 
Date/Time
EST
Temp
°C
App
Temp
°C
Dew
Point
°C
Rel
Hum
%
Delta-T
°C
Wind Press
QNH
hPa
Press
MSL
hPa
Rain since
9am
mm
Dir  Spd
km/h
Gust
km/h
Spd
kts
Gust
kts
14/11:52pm 18.9 16.1 18.1 95 0.5 NNE 30 39 16 21 1009.6 1008.2 1.0
14/11:30pm 18.9 17.6 18.1 95 0.5 NNW 22 37 12 20 1010.8 1009.4 0.8
14/11:09pm 19.3 17.5 17.8 91 0.9 NE 24 37 13 20 1009.5 1008.1 0.0
14/11:00pm 19.2 17.3 17.7 91 0.9 NE 24 37 13 20 1009.5 1008.1 0.0
14/10:30pm 19.0 17.9 17.7 92 0.8 ENE 20 30 11 16 1009.5 1008.1 0.0
14/10:00pm 18.9 17.9 17.9 94 0.6 ENE 20 26 11 14 1010.4 1008.9 0.0
14/09:37pm 19.0 18.2 18.0 94 0.6 ENE 19 26 10 14 1010.7 1009.3 0.0
14/09:30pm 18.9 17.8 17.7 93 0.7 ENE 20 28 11 15 1010.7 1009.3 0.0
14/09:00pm 19.2 17.0 17.9 92 0.8 ENE 26 35 14 19 1010.7 1009.3 0.0
14/08:30pm 19.5 16.8 17.6 89 1.2 ENE 28 35 15 19 1010.8 1009.4 0.0
14/08:00pm 19.3 16.7 17.8 91 0.9 ENE 28 39 15 21 1010.9 1009.5 0.0
14/07:30pm 19.1 16.0 17.4 90 1.1 ENE 30 37 16 20 1010.7 1009.3 0.0
14/07:00pm 19.0 15.7 17.0 88 1.2 ENE 30 39 16 21 1010.2 1008.8 0.0
14/06:30pm 19.2 16.4 17.2 88 1.2 ENE 28 35 15 19 1010.0 1008.6 0.0
14/06:00pm 19.7 16.5 17.3 86 1.5 ENE 30 41 16 22 1009.8 1008.4 0.0
14/05:30pm 20.7 17.5 17.3 81 2.1 E 30 39 16 21 1009.6 1008.2 0.0
14/05:00pm 21.7 18.6 17.5 77 2.6 E 30 39 16 21 1009.3 1007.9 0.0
14/04:30pm 22.3 19.3 17.7 75 2.9 E 30 37 16 20 1009.1 1007.7 0.0
14/04:00pm 22.5 19.8 18.5 78 2.6 E 30 39 16 21 1009.1 1007.7 0.0
14/03:30pm 23.0 20.6 19.2 79 2.5 E 30 41 16 22 1009.2 1007.8 0.0
14/03:00pm 21.9 19.0 18.9 83 1.9 E 32 39 17 21 1009.0 1007.6 0.0
14/02:30pm 21.1 17.4 18.3 84 1.8 ESE 35 41 19 22 1009.2 1007.8 0.0
14/02:29pm 21.3 17.7 18.5 84 1.8 ESE 35 41 19 22 1009.2 1007.8 0.0
14/02:00pm 22.9 20.8 18.9 78 2.6 SE 28 37 15 20 1009.4 1008.0 0.0
14/01:30pm 26.3 25.6 17.4 58 5.7 NNE 17 24 9 13 1009.5 1008.1 0.0
14/01:00pm 24.8 24.1 18.3 67 4.2 NE 19 28 10 15 1010.0 1008.6 0.0
14/12:30pm 24.3 23.3 18.0 68 4.0 NE 20 30 11 16 1010.5 1009.0 0.0
14/12:00pm 23.9 22.7 17.6 68 4.0 NE 20 33 11 18 1011.1 1009.7 0.0
14/11:30am 24.2 22.4 17.9 68 4.0 NE 24 33 13 18 1011.4 1010.0 0.0
14/11:00am 23.6 21.3 18.5 73 3.3 NE 28 35 15 19 1011.7 1010.3 0.0
14/10:30am 22.8 20.8 18.3 76 2.9 NE 26 33 14 18 1012.0 1010.6 0.0
14/10:00am 22.1 20.5 18.3 79 2.4 NE 24 33 13 18 1012.3 1010.9 0.0
14/09:30am 21.0 19.3 18.0 83 1.9 NE 24 33 13 18 1012.7 1011.4 0.0
14/09:00am 20.0 18.9 18.7 92 0.8 NE 22 30 12 16 1013.0 1011.6 25.0
14/08:30am 19.0 18.5 18.7 98 0.2 NE 19 26 10 14 1013.1 1011.7 25.0
14/08:00am 16.8 16.1 16.5 98 0.2 NE 15 19 8 10 1012.8 1011.5 25.0
14/07:30am 16.7 15.6 16.4 98 0.2 NE 17 20 9 11 1012.6 1011.2 19.0
14/07:00am 16.3 15.8 16.0 98 0.2 ENE 13 17 7 9 1012.4 1011.0 18.6
14/06:30am 15.8 14.0 15.5 98 0.2 NE 19 22 10 12 1012.6 1011.2 18.0
14/06:00am 16.2 14.6 15.9 98 0.2 NE 19 26 10 14 1012.2 1010.8 15.8
14/05:43am 16.1 14.8 15.8 98 0.2 NE 17 20 9 11 1012.0 1010.6 15.4
14/05:30am 16.4 14.6 16.1 98 0.2 NE 20 28 11 15 1012.0 1010.6 14.2
14/05:23am 16.7 15.6 16.4 98 0.2 NE 17 24 9 13 1012.1 1010.7 13.0
14/05:11am 16.8 15.4 16.5 98 0.2 ENE 19 22 10 12 1011.9 1010.5 11.4
14/05:00am 16.9 16.3 16.6 98 0.2 E 15 17 8 9 1011.9 1010.5 10.4
14/04:58am 16.9 16.3 16.6 98 0.2 E 15 17 8 9 1011.8 1010.4 10.2
14/04:49am 16.9 16.7 16.6 98 0.2 E 13 17 7 9 1011.8 1010.4 9.4
14/04:41am 16.9 16.3 16.6 98 0.2 E 15 19 8 10 1011.6 1010.2 8.8
14/04:30am 16.9 15.9 16.6 98 0.2 ESE 17 22 9 12 1011.5 1010.1 8.0
14/04:24am 16.9 15.9 16.6 98 0.2 SE 17 22 9 12 1011.4 1010.0 7.8
14/04:00am 16.8 16.1 16.5 98 0.2 ESE 15 22 8 12 1011.5 1010.1 6.6
14/03:53am 16.8 15.2 16.5 98 0.2 ESE 20 24 11 13 1011.0 1009.6 6.2
14/03:36am 16.7 15.6 16.4 98 0.2 S 17 20 9 11 1011.0 1009.6 4.8
14/03:32am 16.8 16.1 16.5 98 0.2 S 15 20 8 11 1011.6 1010.2 4.0
14/03:30am 16.9 16.3 16.6 98 0.2 S 15 20 8 11 1011.7 1010.3 3.6
14/03:00am 17.2 15.6 16.6 96 0.4 SSE 20 24 11 13 1011.3 1009.9 0.4
14/02:33am 17.7 17.3 16.2 91 0.9 ESE 13 20 7 11 1010.8 1009.4 0.0
14/02:30am 17.7 16.9 16.2 91 0.9 E 15 22 8 12 1011.1 1009.7 0.0
14/02:00am 17.8 15.3 16.1 90 1.0 ENE 24 39 13 21 1010.4 1008.9 0.0
14/01:30am 17.6 13.6 16.1 91 0.9 NE 32 41 17 22 1010.5 1009.0 0.0
14/01:02am 17.5 15.4 16.2 92 0.8 ENE 22 30 12 16 1011.0 1009.6 0.0
14/01:00am 17.4 14.9 16.1 92 0.8 ENE 24 32 13 17 1011.0 1009.6 0.0
14/12:30am 17.5 14.1 15.8 90 1.0 ENE 28 33 15 18 1011.4 1010.0 0.0
14/12:16am 17.5 14.4 15.5 88 1.2 ENE 26 35 14 19 1011.7 1010.3 0.0
14/12:00am 17.6 13.7 15.4 87 1.3 ENE 30 37 16 20 1012.0 1010.6 0.0
 
Date/Time
EST
Temp
°C
App
Temp
°C
Dew
Point
°C
Rel
Hum
%
Delta-T
°C
Wind Press
QNH
hPa
Press
MSL
hPa
Rain since
9am
mm
Dir  Spd
km/h
Gust
km/h
Spd
kts
Gust
kts
13/11:30pm 17.8 14.7 15.6 87 1.3 ENE 26 35 14 19 1012.2 1010.8 0.0
13/11:17pm 17.8 13.9 15.6 87 1.3 ENE 30 39 16 21 1012.2 1010.8 0.0
13/11:00pm 17.8 13.9 15.4 86 1.4 ENE 30 35 16 19 1012.3 1010.9 0.0
13/10:30pm 17.8 14.2 15.2 85 1.5 ENE 28 39 15 21 1012.4 1011.0 0.0
13/10:00pm 18.1 13.2 15.2 83 1.7 ENE 35 46 19 25 1012.7 1011.4 0.0
13/09:30pm 18.2 14.3 15.5 84 1.6 ENE 30 35 16 19 1013.1 1011.7 0.0
13/09:00pm 17.7 15.7 15.5 87 1.3 NE 20 28 11 15 1013.1 1011.7 0.0
13/08:30pm 18.2 15.0 15.3 83 1.7 ENE 26 32 14 17 1012.8 1011.5 0.0
13/08:00pm 18.8 16.1 15.7 82 1.9 ENE 24 30 13 16 1012.6 1011.2 0.0
13/07:30pm 19.1 15.6 15.6 80 2.1 ENE 28 43 15 23 1012.2 1010.8 0.0
13/07:00pm 19.4 16.7 15.5 78 2.3 ENE 24 30 13 16 1012.0 1010.6 0.0
13/06:30pm 20.3 17.5 15.3 73 3.0 E 24 33 13 18 1011.7 1010.3 0.0
13/06:00pm 21.1 17.9 15.2 69 3.6 E 26 35 14 19 1011.4 1010.0 0.0
13/05:30pm 22.1 18.4 15.0 64 4.3 E 28 35 15 19 1011.1 1009.7 0.0
13/05:00pm 23.1 19.0 14.9 60 5.0 E 30 37 16 20 1010.4 1008.9 0.0
13/04:30pm 23.9 20.6 14.9 57 5.5 E 26 33 14 18 1010.4 1008.9 0.0
13/04:00pm 23.2 19.5 15.0 60 5.0 E 28 35 15 19 1010.5 1009.0 0.0
13/03:30pm 25.3 22.4 14.1 50 6.7 E 22 30 12 16 1010.5 1009.0 0.0
13/03:00pm 25.1 22.3 13.3 48 7.0 E 20 26 11 14 1010.7 1009.3 0.0
13/02:30pm 24.9 22.5 14.4 52 6.3 ENE 20 28 11 15 1010.7 1009.3 0.0
13/02:00pm 23.9 20.9 13.7 53 6.1 E 22 32 12 17 1011.0 1009.6 0.0
13/01:30pm 24.4 21.7 13.0 49 6.7 ENE 19 26 10 14 1011.2 1009.8 0.0
13/01:00pm 23.4 20.0 13.8 54 5.7 ENE 24 33 13 18 1011.3 1009.9 0.0
13/12:30pm 24.3 20.7 13.2 50 6.6 ENE 24 37 13 20 1011.6 1010.2 0.0
13/12:00pm 24.2 20.3 15.4 58 5.4 E 30 39 16 21 1011.9 1010.5 0.0
13/11:30am 22.8 19.9 16.1 66 4.1 ENE 26 39 14 21 1012.3 1010.9 0.0
13/11:00am 21.7 17.6 14.8 65 4.1 ENE 30 37 16 20 1012.5 1011.1 0.0
13/10:30am 22.0 18.3 15.1 65 4.2 ENE 28 43 15 23 1013.0 1011.6 0.0
13/10:00am 22.1 18.0 15.9 68 3.8 E 32 39 17 21 1013.3 1011.9 0.0
13/09:30am 20.9 16.5 15.2 70 3.4 E 32 41 17 22 1013.6 1012.2 0.0
13/09:00am 20.8 16.5 15.4 71 3.3 E 32 39 17 21 1013.7 1012.3 0.6
13/08:30am 19.7 15.4 15.8 78 2.4 ENE 33 43 18 23 1013.6 1012.2 0.6
13/08:00am 19.1 15.3 15.8 81 2.0 E 30 37 16 20 1013.5 1012.1 0.6
13/07:30am 18.0 13.8 15.8 87 1.3 ENE 32 41 17 22 1013.3 1011.9 0.6
13/07:00am 17.2 14.0 15.4 89 1.1 ENE 26 35 14 19 1013.4 1012.0 0.6
13/06:30am 16.5 15.0 15.4 93 0.7 ENE 17 22 9 12 1013.3 1011.9 0.6
13/06:00am 15.8 15.1 15.3 97 0.3 ENE 13 17 7 9 1013.0 1011.6 0.6

Latest Capital City Observations: Canberra | Sydney | Melbourne | Brisbane | Adelaide | Perth | Hobart | Darwin

Other formats

Comma delimited format used in spreadsheet applications
http://www.bom.gov.au/fwo/IDQ60901/IDQ60901.94552.axf

JavaScript Object Notation format (JSON) in row-major order
http://www.bom.gov.au/fwo/IDQ60901/IDQ60901.94552.json

Data quality

Most of these data are generated automatically and are frequently updated. Quality checks on data are not normally performed. It is possible for incorrect values to appear. Refer to information at About Latest Weather Observations and please check the disclaimer before using these data.